Terminal Aerodrome Forecast
Issued by NWS Bismarck, ND

Home | Current Version | Previous Version | Graphics & Text | Print | Product List | Glossary On
Versions: 1 2 3 4 5 6 7 8 9 10 11 12 13 14 15 16 17 18 19 20
000
FTUS43 KBIS 241600 AAA
TAFBIS
TAF AMD
KBIS 241621Z 2416/2512 15020G30KT P6SM VCSH SCT025 BKN035 OVC080
      TEMPO 2416/2419 5SM -RA BR BKN025 OVC035
     FM241900 16014KT 5SM -RA BR SCT015 OVC025
     FM242100 28018G28KT P6SM -RA OVC020
     FM242300 29020G28KT 4SM -RASN BKN018 OVC025=

USA.gov is the U.S. government's official web portal to all federal, state and local government web resources and services.